Raymond, Montana
Current Conditions -  °F | °C
As of 11:55 AM on Sunday 23 Nov 2014 (Local Time) from KD50 Reporting Station
Light Snow Light Snow  
Wind Chill: -3°   Ceiling: 1400
Heat Index: 16°   Visibility: 10mi
Dew Point: 10°   Wind: 24mph
Humidity: 79%   Direction: 320°NW
Pressure: 29.69"   Gusts: 33mph
Location:  48.88°N, 104.58°W
Report Text: KD50 231855Z AUTO 32021G29KT 10SM -SN FEW010 BKN014 OVC021 M09/M12 A2969 RMK AO2 P0019
Loading
Personal Weather Stations






























Interactive Weather Map New forecast layout! Learn more

10-Day Weather Forecast

Advertisements
Track Severe Weather on mobile